Time;durP1;ratioP1;P1;durP2;ratioP2;P2;SDS_P1;SDS_P2;PMS_P1;PMS_P2;Temp;Humidity;BMP_temperature;BMP_pressure;BME280_temperature;BME280_humidity;BME280_pressure;Samples;Min_cycle;Max_cycle;Signal;HPM_P1;HPM_P2
2021/12/27 00:01:22;;;;;;;26.83;14.80;;;;;;;6.33;83.64;94670.25;5053945;28;20687;-77
2021/12/27 00:03:51;;;;;;;42.60;18.10;;;;;;;6.37;84.20;94663.44;5053137;28;20202;-77
2021/12/27 00:06:19;;;;;;;36.10;18.83;;;;;;;6.33;83.52;94650.06;5054557;28;20669;-77
2021/12/27 00:08:47;;;;;;;38.78;19.30;;;;;;;6.32;84.99;94653.44;5045172;28;20326;-77
2021/12/27 00:11:14;;;;;;;37.75;17.40;;;;;;;6.15;84.84;94665.63;5044334;28;20761;-76
2021/12/27 00:13:41;;;;;;;33.38;17.77;;;;;;;6.19;85.85;94662.16;5053716;28;20206;-76
2021/12/27 00:16:08;;;;;;;34.10;16.55;;;;;;;6.58;83.99;94655.34;5053009;28;20371;-76
2021/12/27 00:18:35;;;;;;;25.52;15.43;;;;;;;6.67;82.47;94649.25;5053094;28;20233;-75
2021/12/27 00:21:02;;;;;;;28.55;16.23;;;;;;;6.71;82.58;94660.91;5052995;28;20636;-76
2021/12/27 00:23:29;;;;;;;32.55;16.23;;;;;;;6.82;81.45;94664.00;5053694;28;20206;-76
2021/12/27 00:25:58;;;;;;;32.90;17.20;;;;;;;6.82;81.73;94643.78;5052146;28;21185;-76
2021/12/27 00:28:24;;;;;;;29.77;17.17;;;;;;;6.97;81.81;94650.13;5053318;28;20674;-77
2021/12/27 00:30:52;;;;;;;28.98;17.10;;;;;;;6.76;82.20;94644.78;5053474;28;20222;-76
2021/12/27 00:33:19;;;;;;;30.30;15.80;;;;;;;6.77;81.87;94636.34;5053200;28;20267;-77
2021/12/27 00:35:47;;;;;;;31.33;17.38;;;;;;;6.82;82.29;94633.69;5052926;28;20664;-75
2021/12/27 00:38:14;;;;;;;37.33;16.65;;;;;;;6.76;81.81;94657.41;5053730;28;20298;-76
2021/12/27 00:40:41;;;;;;;26.40;16.83;;;;;;;6.66;82.94;94653.47;5050172;28;20759;-77
2021/12/27 00:43:09;;;;;;;30.42;16.60;;;;;;;6.69;82.60;94650.00;5049908;28;20199;-77
2021/12/27 00:45:36;;;;;;;29.95;16.35;;;;;;;6.73;82.70;94649.06;5048488;28;20259;-76
2021/12/27 00:48:04;;;;;;;33.15;16.13;;;;;;;6.72;83.59;94653.28;5053183;28;20334;-76
2021/12/27 00:50:31;;;;;;;28.83;15.93;;;;;;;6.60;83.06;94655.31;5054078;28;20299;-75
2021/12/27 00:52:58;;;;;;;25.98;14.48;;;;;;;6.88;82.72;94675.66;5054295;28;20299;-75
2021/12/27 00:55:25;;;;;;;29.60;14.48;;;;;;;7.06;81.48;94673.47;5054684;28;20199;-76
2021/12/27 00:57:53;;;;;;;27.90;15.30;;;;;;;6.95;81.49;94660.28;5055186;28;20757;-75
2021/12/27 01:00:25;;;;;;;26.17;15.85;;;;;;;6.94;81.50;94667.91;5054575;28;20205;-75
2021/12/27 01:02:53;;;;;;;22.58;14.10;;;;;;;6.57;83.00;94662.94;5054777;28;20203;-75
2021/12/27 01:05:23;;;;;;;25.27;14.85;;;;;;;6.44;84.12;94652.31;5053885;28;20199;-75
2021/12/27 01:07:50;;;;;;;26.60;15.23;;;;;;;6.64;83.11;94675.41;5052688;28;20584;-76
2021/12/27 01:13:07;;;;;;;22.45;14.18;;;;;;;6.59;83.08;94646.06;5054041;28;20217;-75
2021/12/27 01:15:49;;;;;;;28.08;14.20;;;;;;;6.85;82.92;94647.94;5052559;28;20311;-75
2021/12/27 01:18:16;;;;;;;33.30;13.50;;;;;;;6.82;81.96;94654.72;5053137;28;20198;-74
2021/12/27 01:20:44;;;;;;;23.65;13.77;;;;;;;6.67;82.36;94647.56;5053574;28;20198;-74
2021/12/27 01:23:11;;;;;;;23.80;14.52;;;;;;;6.90;82.54;94646.13;5053575;28;20195;-76
2021/12/27 01:25:38;;;;;;;23.88;13.73;;;;;;;6.93;82.32;94643.53;5053257;28;20774;-75
2021/12/27 01:28:06;;;;;;;18.42;12.05;;;;;;;7.12;81.18;94650.56;5052773;28;20327;-76
2021/12/27 01:30:37;;;;;;;21.45;13.20;;;;;;;7.13;80.59;94649.72;5052652;28;20199;-76
2021/12/27 01:33:08;;;;;;;23.33;15.15;;;;;;;6.86;82.15;94630.22;5053555;28;20258;-75
2021/12/27 01:35:35;;;;;;;23.83;14.55;;;;;;;6.82;82.16;94633.69;5052322;28;20686;-75
2021/12/27 01:38:02;;;;;;;26.42;15.40;;;;;;;6.55;83.56;94625.13;5054773;28;20296;-75
2021/12/27 01:40:30;;;;;;;27.42;15.40;;;;;;;6.64;83.69;94624.91;5055611;28;20236;-76
2021/12/27 01:43:09;;;;;;;26.98;15.07;;;;;;;6.44;85.17;94622.03;5054560;28;20687;-75
2021/12/27 01:45:44;;;;;;;26.63;14.82;;;;;;;6.79;83.03;94629.56;5055025;28;20590;-75
2021/12/27 01:48:14;;;;;;;31.23;16.05;;;;;;;6.84;82.53;94642.06;5055159;28;20656;-75
2021/12/27 01:50:44;;;;;;;27.05;15.18;;;;;;;6.73;82.36;94637.28;5051537;28;20211;-75
2021/12/27 01:53:12;;;;;;;26.88;15.63;;;;;;;6.65;83.69;94629.09;5052770;28;20262;-75
2021/12/27 01:55:39;;;;;;;25.60;14.93;;;;;;;6.66;83.05;94632.44;5053754;28;20637;-75
2021/12/27 01:58:07;;;;;;;29.42;15.88;;;;;;;6.55;84.67;94627.66;5064118;28;20206;-75
2021/12/27 02:00:35;;;;;;;32.70;16.52;;;;;;;6.38;85.35;94612.09;5069320;28;20683;-75
2021/12/27 02:03:03;;;;;;;26.75;14.95;;;;;;;6.47;85.75;94612.69;5070262;28;20195;-75
2021/12/27 02:05:32;;;;;;;30.92;15.98;;;;;;;6.68;83.96;94631.50;5068418;28;20198;-74
2021/12/27 02:07:58;;;;;;;26.30;15.25;;;;;;;6.64;83.80;94609.75;5068415;28;20736;-74
2021/12/27 02:10:25;;;;;;;26.70;14.10;;;;;;;6.58;84.83;94630.09;5068536;28;20750;-75
2021/12/27 02:12:52;;;;;;;18.20;13.13;;;;;;;6.81;82.95;94622.75;5062195;28;20316;-75
2021/12/27 02:15:20;;;;;;;19.70;11.63;;;;;;;6.98;83.84;94631.59;5036029;28;20264;-75
2021/12/27 02:17:48;;;;;;;25.65;15.20;;;;;;;6.89;82.73;94587.22;5055215;28;20587;-74
2021/12/27 02:20:21;;;;;;;23.77;14.95;;;;;;;6.70;84.03;94598.66;5054436;28;20202;-74
2021/12/27 02:22:51;;;;;;;18.85;12.30;;;;;;;6.82;83.81;94588.25;5051176;28;20260;-74
2021/12/27 02:25:18;;;;;;;20.08;13.30;;;;;;;7.02;83.18;94600.31;5048739;28;20207;-75
2021/12/27 02:27:46;;;;;;;22.52;14.27;;;;;;;6.74;84.25;94613.69;5032532;28;20238;-75
2021/12/27 02:30:17;;;;;;;24.90;14.65;;;;;;;6.70;85.39;94586.84;5049832;28;20281;-75
2021/12/27 02:32:48;;;;;;;23.35;13.80;;;;;;;6.83;85.26;94600.00;5048603;28;20246;-75
2021/12/27 02:35:20;;;;;;;26.42;15.20;;;;;;;6.95;83.82;94598.81;5050439;28;20195;-75
2021/12/27 02:37:47;;;;;;;23.40;13.77;;;;;;;7.05;83.81;94600.25;5049208;28;20199;-75
2021/12/27 02:40:15;;;;;;;24.42;14.82;;;;;;;6.87;84.44;94610.84;5048998;28;20265;-75
2021/12/27 02:43:00;;;;;;;27.05;15.77;;;;;;;6.76;86.21;94604.38;5050050;28;20251;-75
2021/12/27 02:45:28;;;;;;;30.42;16.33;;;;;;;6.83;85.84;94600.00;5049957;28;20253;-75
2021/12/27 02:47:55;;;;;;;31.15;15.23;;;;;;;6.80;86.28;94585.75;5050336;28;20227;-75
2021/12/27 02:50:24;;;;;;;25.73;15.98;;;;;;;6.74;85.97;94580.03;5049686;28;20203;-75
2021/12/27 02:52:51;;;;;;;25.75;15.32;;;;;;;6.87;86.14;94595.69;5046679;28;20198;-76
2021/12/27 02:55:19;;;;;;;22.65;14.10;;;;;;;6.97;85.18;94574.34;5052684;28;20256;-76
2021/12/27 02:57:47;;;;;;;20.65;13.15;;;;;;;6.94;84.56;94571.91;5054040;28;20255;-76
2021/12/27 03:00:17;;;;;;;27.35;14.90;;;;;;;7.07;83.08;94585.88;5054767;28;20252;-77
2021/12/27 03:02:46;;;;;;;25.08;13.07;;;;;;;6.72;84.93;94569.97;5053386;28;20501;-74
2021/12/27 03:05:16;;;;;;;25.00;14.30;;;;;;;6.68;85.74;94588.59;5054339;28;20293;-76
2021/12/27 03:07:45;;;;;;;21.40;13.48;;;;;;;6.59;85.93;94576.22;5053929;28;20227;-75
2021/12/27 03:10:14;;;;;;;22.67;12.93;;;;;;;6.77;85.28;94600.16;5052536;28;20265;-76
2021/12/27 03:12:43;;;;;;;21.77;13.20;;;;;;;6.60;86.36;94587.16;5054275;28;20233;-75
2021/12/27 03:15:11;;;;;;;21.35;13.95;;;;;;;6.67;86.32;94592.00;5051949;28;20291;-75
2021/12/27 03:17:38;;;;;;;25.23;14.98;;;;;;;6.75;86.32;94574.09;5052089;28;20226;-76
2021/12/27 03:20:06;;;;;;;23.40;16.13;;;;;;;6.56;86.59;94551.06;5052664;28;20195;-77
2021/12/27 03:22:33;;;;;;;32.78;18.00;;;;;;;6.50;87.69;94611.78;5048316;28;20793;-77
2021/12/27 03:25:01;;;;;;;32.47;19.75;;;;;;;6.48;88.31;94551.25;5045892;28;20666;-76
2021/12/27 03:27:28;;;;;;;26.27;15.40;;;;;;;6.51;86.24;94562.97;5047615;28;20199;-77
2021/12/27 03:29:55;;;;;;;23.05;14.50;;;;;;;6.57;86.13;94565.34;5047207;28;20227;-77
2021/12/27 03:32:23;;;;;;;26.38;14.10;;;;;;;6.56;86.28;94550.22;5049535;28;20280;-74
2021/12/27 03:35:03;;;;;;;24.20;14.82;;;;;;;6.56;86.06;94572.94;5048917;28;20908;-74
2021/12/27 03:37:31;;;;;;;21.90;14.27;;;;;;;6.69;85.45;94577.63;5049277;28;20203;-77
2021/12/27 03:39:58;;;;;;;21.63;13.27;;;;;;;6.79;84.23;94568.94;5049054;28;20666;-74
2021/12/27 03:42:26;;;;;;;17.85;12.48;;;;;;;6.80;84.39;94552.91;5047644;28;20195;-75
2021/12/27 03:44:53;;;;;;;24.70;12.98;;;;;;;6.79;84.64;94590.84;5047709;28;20244;-78
2021/12/27 03:47:19;;;;;;;28.55;14.63;;;;;;;6.66;85.63;94539.84;5047449;28;20245;-75
2021/12/27 03:49:46;;;;;;;15.30;10.13;;;;;;;6.74;84.72;94553.06;5047666;28;20231;-78
2021/12/27 03:52:13;;;;;;;18.13;11.25;;;;;;;6.82;84.92;94547.81;5048101;28;20217;-77
2021/12/27 03:54:39;;;;;;;16.60;12.38;;;;;;;6.88;83.25;94574.63;5051477;28;20198;-78
2021/12/27 03:57:06;;;;;;;21.25;13.90;;;;;;;7.04;83.86;94548.88;5052515;28;20264;-76
2021/12/27 03:59:50;;;;;;;18.35;12.77;;;;;;;6.99;84.01;94524.63;5052685;28;20191;-74
2021/12/27 04:02:17;;;;;;;16.77;9.95;;;;;;;7.03;83.24;94551.44;5052777;28;20191;-76
2021/12/27 04:04:44;;;;;;;17.33;10.98;;;;;;;6.95;84.24;94561.75;5053286;28;20203;-76
2021/12/27 04:07:12;;;;;;;17.20;11.40;;;;;;;6.96;84.76;94555.84;5053345;28;20281;-76
2021/12/27 04:09:39;;;;;;;20.77;11.63;;;;;;;7.03;83.62;94557.34;5052701;28;20669;-76
2021/12/27 04:12:06;;;;;;;16.60;10.30;;;;;;;7.04;83.39;94564.03;5053300;28;20318;-77
2021/12/27 04:14:35;;;;;;;19.50;11.05;;;;;;;7.05;82.88;94564.88;5052360;28;20261;-77
2021/12/27 04:17:02;;;;;;;15.80;10.50;;;;;;;7.12;83.05;94576.47;5052311;28;20195;-75
2021/12/27 04:19:28;;;;;;;15.63;10.57;;;;;;;7.08;82.70;94575.72;5052895;28;20743;-76
2021/12/27 04:21:55;;;;;;;15.98;10.80;;;;;;;7.10;83.15;94560.53;5053085;28;20199;-75
2021/12/27 04:24:22;;;;;;;12.30;9.43;;;;;;;7.20;84.03;94559.38;5052717;28;20661;-75
2021/12/27 04:26:48;;;;;;;11.00;8.65;;;;;;;7.18;82.50;94592.28;5052245;28;20195;-75
2021/12/27 04:29:15;;;;;;;14.73;9.30;;;;;;;7.19;82.77;94552.66;5052629;28;20284;-75
2021/12/27 04:31:43;;;;;;;10.32;7.53;;;;;;;7.19;81.97;94583.00;5053018;28;20304;-75
2021/12/27 04:34:10;;;;;;;10.48;8.20;;;;;;;7.18;82.85;94561.13;5052538;28;20723;-75
2021/12/27 04:36:37;;;;;;;8.60;7.13;;;;;;;7.25;82.51;94567.66;5052978;28;20200;-75
2021/12/27 04:39:07;;;;;;;9.20;7.70;;;;;;;7.18;82.91;94567.00;5052244;28;20245;-75
2021/12/27 04:41:35;;;;;;;10.15;7.13;;;;;;;7.19;82.51;94570.34;5052887;28;20203;-75
2021/12/27 04:44:02;;;;;;;7.85;7.05;;;;;;;7.14;82.34;94539.34;5052482;28;20553;-75
2021/12/27 04:46:28;;;;;;;6.55;5.93;;;;;;;7.31;82.12;94577.59;5051981;28;20195;-76
2021/12/27 04:48:56;;;;;;;7.93;6.03;;;;;;;7.37;82.10;94581.66;5051733;28;20231;-75
2021/12/27 04:51:23;;;;;;;16.58;6.80;;;;;;;7.45;81.35;94574.66;5052231;28;20195;-74
2021/12/27 04:53:51;;;;;;;11.85;6.50;;;;;;;7.43;81.44;94578.94;5052533;28;20754;-75
2021/12/27 04:56:18;;;;;;;12.30;6.65;;;;;;;7.41;81.38;94571.41;5052368;28;20666;-78
2021/12/27 04:58:46;;;;;;;9.40;6.68;;;;;;;7.41;81.71;94565.53;5052499;28;20252;-77
2021/12/27 05:01:13;;;;;;;10.15;6.43;;;;;;;7.45;81.80;94590.66;5052382;28;20195;-77
2021/12/27 05:03:40;;;;;;;9.50;7.65;;;;;;;7.31;81.76;94564.13;5051775;28;20670;-75
2021/12/27 05:06:09;;;;;;;11.50;8.35;;;;;;;7.13;82.34;94545.28;5051599;28;20272;-76
2021/12/27 05:08:35;;;;;;;9.77;7.20;;;;;;;7.31;81.23;94557.38;5050137;28;20199;-75
2021/12/27 05:11:04;;;;;;;7.43;6.57;;;;;;;7.34;81.70;94569.09;5049798;28;20288;-75
2021/12/27 05:13:33;;;;;;;10.60;6.60;;;;;;;7.26;82.61;94583.66;5050126;28;20192;-75
2021/12/27 05:16:00;;;;;;;13.07;7.35;;;;;;;7.20;83.29;94584.66;5050056;28;20198;-76
2021/12/27 05:18:28;;;;;;;12.52;9.25;;;;;;;7.15;84.20;94571.34;5049879;28;20253;-76
2021/12/27 05:20:54;;;;;;;9.52;8.30;;;;;;;7.22;83.68;94582.91;5049721;28;20221;-76
2021/12/27 05:23:22;;;;;;;13.20;8.20;;;;;;;7.19;84.22;94585.50;5050896;28;20195;-75
2021/12/27 05:25:49;;;;;;;14.02;8.07;;;;;;;7.09;84.54;94576.56;5051505;28;20203;-76
2021/12/27 05:28:16;;;;;;;9.80;8.02;;;;;;;7.35;82.88;94581.69;5051883;28;20245;-76
2021/12/27 05:30:47;;;;;;;9.23;7.72;;;;;;;7.40;82.28;94590.00;5051765;28;20280;-78
2021/12/27 05:33:15;;;;;;;13.45;7.18;;;;;;;7.42;82.51;94570.53;5051633;28;20724;-75
2021/12/27 05:35:42;;;;;;;11.00;7.85;;;;;;;7.16;84.07;94571.28;5051687;28;20650;-75
2021/12/27 05:38:08;;;;;;;9.55;7.40;;;;;;;7.37;82.35;94576.59;5051471;28;20580;-75
2021/12/27 05:40:37;;;;;;;14.10;8.20;;;;;;;7.36;81.92;94554.72;5051849;28;20670;-75
2021/12/27 05:43:06;;;;;;;8.98;7.63;;;;;;;7.33;83.32;94572.50;5051604;28;20252;-76
2021/12/27 05:45:33;;;;;;;9.30;8.18;;;;;;;7.50;81.94;94581.25;5052029;28;20194;-75
2021/12/27 05:47:59;;;;;;;14.18;7.90;;;;;;;7.34;83.11;94572.47;5051846;28;20328;-75
2021/12/27 05:50:26;;;;;;;8.48;7.57;;;;;;;7.14;84.09;94574.75;5051624;28;20227;-74
2021/12/27 05:52:53;;;;;;;9.98;7.07;;;;;;;7.17;83.44;94572.13;5051376;28;20199;-77
2021/12/27 05:55:21;;;;;;;14.13;8.25;;;;;;;7.14;84.73;94580.63;5051412;28;20386;-75
2021/12/27 05:57:49;;;;;;;16.23;9.02;;;;;;;7.03;84.64;94576.72;5051470;28;20245;-76
2021/12/27 06:00:17;;;;;;;11.95;8.80;;;;;;;7.01;85.19;94575.94;5051644;28;20199;-74
2021/12/27 06:02:44;;;;;;;11.35;7.60;;;;;;;7.11;84.17;94577.34;5051701;28;20195;-75
2021/12/27 06:05:12;;;;;;;9.75;7.18;;;;;;;7.20;84.53;94579.59;5050499;28;20195;-74
2021/12/27 06:07:39;;;;;;;7.43;6.72;;;;;;;7.43;83.34;94572.19;5051533;28;20290;-75
2021/12/27 06:10:07;;;;;;;9.98;6.80;;;;;;;7.58;82.37;94554.91;5050866;28;20230;-77
2021/12/27 06:12:34;;;;;;;8.18;6.70;;;;;;;7.51;81.76;94565.19;5050728;28;20293;-77
2021/12/27 06:15:02;;;;;;;7.25;6.57;;;;;;;7.58;82.46;94565.84;5050856;28;20248;-76
2021/12/27 06:17:31;;;;;;;5.90;5.25;;;;;;;7.62;82.67;94569.13;5050954;28;20195;-77
2021/12/27 06:19:58;;;;;;;7.38;6.00;;;;;;;7.80;81.30;94571.09;5050857;28;20195;-77
2021/12/27 06:22:25;;;;;;;6.80;6.10;;;;;;;7.68;81.99;94573.97;5051202;28;20662;-77
2021/12/27 06:24:52;;;;;;;9.50;6.70;;;;;;;7.61;82.42;94570.81;5050067;28;20249;-75
2021/12/27 06:27:19;;;;;;;9.40;6.85;;;;;;;7.43;83.18;94574.69;5050864;28;20619;-75
2021/12/27 06:29:46;;;;;;;14.95;9.38;;;;;;;7.24;84.32;94560.94;5051334;28;20276;-76
2021/12/27 06:32:14;;;;;;;15.82;7.88;;;;;;;7.35;84.01;94563.19;5050679;28;20219;-75
2021/12/27 06:34:41;;;;;;;10.90;9.10;;;;;;;7.44;83.51;94551.06;5050639;28;20195;-75
2021/12/27 06:37:08;;;;;;;12.98;9.25;;;;;;;7.46;82.38;94561.16;5050806;28;20198;-75
2021/12/27 06:39:35;;;;;;;15.68;10.02;;;;;;;7.29;83.95;94554.06;5050792;28;20195;-75
2021/12/27 06:42:01;;;;;;;17.15;11.95;;;;;;;7.28;84.34;94551.59;5050734;28;20210;-74
2021/12/27 06:44:28;;;;;;;23.75;11.55;;;;;;;7.33;84.07;94550.59;5048571;28;20202;-75
2021/12/27 06:46:59;;;;;;;12.18;8.43;;;;;;;7.61;82.82;94554.81;5048782;28;20198;-76
2021/12/27 06:49:27;;;;;;;13.60;8.55;;;;;;;7.81;81.76;94557.56;5048687;28;20276;-75
2021/12/27 06:51:54;;;;;;;29.80;16.10;;;;;;;8.04;81.03;94545.03;5048864;28;20261;-75
2021/12/27 06:54:21;;;;;;;13.73;9.27;;;;;;;8.09;80.95;94543.19;5048763;28;20662;-74
2021/12/27 06:56:48;;;;;;;18.05;7.65;;;;;;;8.02;80.52;94544.25;5048564;28;20244;-76
2021/12/27 06:59:14;;;;;;;11.18;7.68;;;;;;;8.22;79.82;94547.81;5049826;28;20199;-75
2021/12/27 07:01:41;;;;;;;15.73;8.95;;;;;;;7.82;82.21;94549.09;5050385;28;20265;-74
2021/12/27 07:04:08;;;;;;;15.27;10.15;;;;;;;7.76;83.10;94540.00;5050506;28;20195;-75
2021/12/27 07:06:36;;;;;;;16.58;10.57;;;;;;;7.81;82.78;94547.44;5050030;28;20739;-75
2021/12/27 07:09:05;;;;;;;14.70;10.38;;;;;;;7.81;82.52;94538.16;5050102;28;20256;-76
2021/12/27 07:11:32;;;;;;;15.00;9.75;;;;;;;7.88;82.94;94528.69;5049998;28;20581;-75
2021/12/27 07:13:59;;;;;;;9.90;8.05;;;;;;;7.95;82.08;94537.72;5050164;28;20245;-76
2021/12/27 07:16:27;;;;;;;10.45;7.90;;;;;;;7.92;80.71;94522.63;5050695;28;20191;-74
2021/12/27 07:18:53;;;;;;;8.88;6.07;;;;;;;8.00;81.42;94537.56;5050532;28;20230;-75
2021/12/27 07:21:20;;;;;;;8.55;6.65;;;;;;;8.08;80.53;94551.66;5050542;28;20194;-76
2021/12/27 07:23:48;;;;;;;9.85;6.93;;;;;;;8.15;80.95;94544.69;5050217;28;20191;-78
2021/12/27 07:26:15;;;;;;;7.65;6.85;;;;;;;8.11;80.93;94543.97;5050036;28;20199;-75
2021/12/27 07:28:42;;;;;;;9.77;6.80;;;;;;;8.23;80.51;94554.53;5052243;28;20260;-77
2021/12/27 07:31:09;;;;;;;12.98;8.45;;;;;;;8.30;80.45;94543.34;5054309;28;20226;-76
2021/12/27 07:33:37;;;;;;;9.85;6.47;;;;;;;8.46;79.49;94531.84;5053629;28;20623;-75
2021/12/27 07:36:05;;;;;;;13.07;8.90;;;;;;;8.42;79.90;94537.91;5054146;28;20248;-76
2021/12/27 07:38:32;;;;;;;10.70;9.07;;;;;;;8.38;80.69;94559.16;5054172;28;20278;-77
2021/12/27 07:41:00;;;;;;;14.95;8.93;;;;;;;8.33;80.90;94566.06;5053585;28;20670;-77
2021/12/27 07:43:27;;;;;;;17.42;9.77;;;;;;;8.31;80.10;94542.47;5053806;28;20195;-75
2021/12/27 07:45:54;;;;;;;8.73;7.25;;;;;;;8.30;79.91;94553.47;5053855;28;20191;-75
2021/12/27 07:48:21;;;;;;;12.25;8.40;;;;;;;8.31;80.26;94524.75;5053871;28;20857;-76
2021/12/27 07:50:48;;;;;;;14.15;8.65;;;;;;;8.13;81.13;94521.97;5054091;28;20284;-77
2021/12/27 07:53:15;;;;;;;14.35;7.47;;;;;;;8.20;81.68;94546.16;5053588;28;20677;-77
2021/12/27 07:55:42;;;;;;;11.50;7.47;;;;;;;8.37;80.47;94543.13;5053590;28;20199;-75
2021/12/27 07:58:10;;;;;;;12.57;7.97;;;;;;;8.25;81.17;94538.44;5053496;28;20575;-77
2021/12/27 08:00:37;;;;;;;12.45;8.13;;;;;;;8.35;80.37;94518.75;5053276;28;20734;-77
2021/12/27 08:03:05;;;;;;;10.80;9.23;;;;;;;8.49;80.03;94537.66;5053154;28;20739;-74
2021/12/27 08:05:32;;;;;;;13.57;9.70;;;;;;;8.39;80.27;94536.31;5053185;28;20690;-77
2021/12/27 08:07:59;;;;;;;15.93;10.55;;;;;;;8.26;81.55;94539.25;5052830;28;20669;-78
2021/12/27 08:10:26;;;;;;;20.27;12.82;;;;;;;8.25;81.75;94555.31;5053212;28;20763;-77
2021/12/27 08:12:53;;;;;;;23.17;12.90;;;;;;;8.30;81.17;94528.16;5053462;28;20377;-77
2021/12/27 08:15:21;;;;;;;29.17;12.93;;;;;;;8.37;81.54;94524.59;5052862;28;20260;-76
2021/12/27 08:17:48;;;;;;;19.75;13.25;;;;;;;8.38;80.61;94513.59;5052738;28;20198;-76
2021/12/27 08:20:15;;;;;;;17.80;12.00;;;;;;;8.34;81.56;94501.91;5052326;28;20199;-76
2021/12/27 08:22:41;;;;;;;17.90;12.90;;;;;;;8.37;81.81;94527.13;5052704;28;20196;-76
2021/12/27 08:25:09;;;;;;;18.58;10.65;;;;;;;8.48;80.89;94495.47;5052647;28;20248;-75
2021/12/27 08:27:37;;;;;;;18.55;9.90;;;;;;;8.54;79.71;94524.84;5052371;28;20735;-77
2021/12/27 08:30:06;;;;;;;14.00;10.00;;;;;;;8.54;80.02;94534.97;5052299;28;20280;-76
2021/12/27 08:32:35;;;;;;;9.15;7.60;;;;;;;8.51;80.91;94545.19;5052176;28;20721;-77
2021/12/27 08:35:02;;;;;;;10.27;8.50;;;;;;;8.64;80.26;94505.91;5051510;28;20195;-76
2021/12/27 08:37:31;;;;;;;12.90;8.88;;;;;;;8.70;79.53;94518.34;5050369;28;20633;-77
2021/12/27 08:39:59;;;;;;;11.93;8.45;;;;;;;8.60;81.00;94511.97;5050806;28;20199;-77
2021/12/27 08:42:26;;;;;;;11.00;8.68;;;;;;;8.70;80.35;94504.84;5051591;28;20199;-77
2021/12/27 08:44:53;;;;;;;9.05;7.68;;;;;;;8.77;79.65;94502.06;5052115;28;20248;-77
2021/12/27 08:47:21;;;;;;;11.70;8.65;;;;;;;8.72;80.01;94521.66;5051838;28;20199;-77
2021/12/27 08:49:50;;;;;;;11.27;7.88;;;;;;;8.82;79.79;94504.44;5051998;28;20662;-78
2021/12/27 08:52:17;;;;;;;8.52;7.00;;;;;;;9.05;78.60;94483.34;5052433;28;20613;-76
2021/12/27 08:54:44;;;;;;;8.48;6.50;;;;;;;8.99;78.41;94486.91;5052519;28;20240;-75
2021/12/27 08:57:10;;;;;;;8.95;6.82;;;;;;;9.07;77.89;94514.50;5052088;28;20199;-76
2021/12/27 08:59:37;;;;;;;8.80;6.75;;;;;;;8.93;78.72;94491.38;5052194;28;20198;-77
2021/12/27 09:02:05;;;;;;;8.75;6.70;;;;;;;8.93;79.55;94509.09;5036251;28;20208;-76
2021/12/27 09:04:32;;;;;;;8.52;7.10;;;;;;;9.11;78.65;94483.94;5031302;28;20192;-76
2021/12/27 09:07:00;;;;;;;12.63;7.07;;;;;;;9.40;78.01;94471.88;5032422;28;20225;-77
2021/12/27 09:09:27;;;;;;;11.20;7.18;;;;;;;9.64;77.14;94457.41;5032402;28;20476;-76
2021/12/27 09:11:54;;;;;;;11.90;7.03;;;;;;;10.07;76.01;94476.81;5032316;28;20243;-77
2021/12/27 09:14:20;;;;;;;7.53;6.65;;;;;;;10.37;74.08;94452.72;5032086;28;20620;-77
2021/12/27 09:16:48;;;;;;;11.82;7.22;;;;;;;10.27;73.65;94476.00;5030604;28;20188;-77
2021/12/27 09:19:15;;;;;;;9.50;6.97;;;;;;;10.16;74.78;94454.38;5029166;28;20204;-75
2021/12/27 09:21:42;;;;;;;12.65;6.93;;;;;;;9.95;74.61;94450.19;5029556;28;20654;-77
2021/12/27 09:24:10;;;;;;;10.90;6.85;;;;;;;9.86;75.38;94443.81;5029397;28;20250;-76
2021/12/27 09:26:39;;;;;;;12.60;7.80;;;;;;;9.58;76.31;94433.09;5031743;28;20199;-77
2021/12/27 09:29:06;;;;;;;11.55;8.30;;;;;;;9.61;77.07;94434.69;5031759;28;20200;-78
2021/12/27 09:31:34;;;;;;;14.77;8.23;;;;;;;9.64;77.20;94429.50;5031391;28;20235;-77
2021/12/27 09:34:01;;;;;;;10.70;7.63;;;;;;;9.69;77.22;94433.50;5031821;28;20636;-76
2021/12/27 09:36:28;;;;;;;12.18;8.50;;;;;;;9.86;76.08;94415.88;5031396;28;20322;-76
2021/12/27 09:38:55;;;;;;;13.80;8.88;;;;;;;9.70;76.17;94408.94;5031376;28;20277;-76
2021/12/27 09:41:23;;;;;;;13.30;7.70;;;;;;;9.66;76.98;94437.84;5031448;28;20728;-75
2021/12/27 09:43:50;;;;;;;10.75;8.10;;;;;;;9.60;77.08;94402.59;5030611;28;20200;-75
2021/12/27 09:46:18;;;;;;;14.95;9.57;;;;;;;9.68;76.59;94400.56;5031008;28;20265;-76
2021/12/27 09:48:45;;;;;;;13.00;8.82;;;;;;;9.63;76.50;94402.50;5031438;28;20674;-77
2021/12/27 09:51:12;;;;;;;16.35;8.85;;;;;;;9.79;76.27;94403.50;5030257;28;20219;-77
2021/12/27 09:53:39;;;;;;;10.10;7.95;;;;;;;9.92;76.33;94394.47;5031648;28;20200;-77
2021/12/27 09:56:08;;;;;;;13.93;8.23;;;;;;;10.01;75.94;94398.38;5031772;28;20204;-76
2021/12/27 09:58:37;;;;;;;14.82;8.45;;;;;;;10.15;75.34;94380.81;5031905;28;20282;-80
2021/12/27 10:01:06;;;;;;;14.50;9.10;;;;;;;10.26;74.71;94378.69;5031794;28;20258;-75
2021/12/27 10:03:45;;;;;;;13.68;8.98;;;;;;;10.21;74.53;94399.19;5031488;28;20199;-79
2021/12/27 10:06:14;;;;;;;14.95;9.13;;;;;;;10.22;74.16;94422.88;5031010;28;20200;-76
2021/12/27 10:08:45;;;;;;;15.85;8.48;;;;;;;10.13;74.16;94403.75;5031130;28;20196;-76
2021/12/27 10:11:17;;;;;;;14.13;8.15;;;;;;;10.12;74.30;94380.97;5030389;28;20239;-75
2021/12/27 10:13:58;;;;;;;11.90;8.43;;;;;;;10.37;74.35;94398.56;5030848;28;20204;-75
2021/12/27 10:16:25;;;;;;;16.67;9.02;;;;;;;10.31;74.03;94408.97;5030021;28;20290;-74
2021/12/27 10:18:55;;;;;;;13.73;9.60;;;;;;;10.26;74.55;94415.94;5030712;28;20195;-74
2021/12/27 10:21:21;;;;;;;12.65;8.88;;;;;;;10.23;74.29;94399.13;5030831;28;20728;-78
2021/12/27 10:23:48;;;;;;;11.88;8.77;;;;;;;10.26;74.29;94398.19;5031111;28;20225;-78
2021/12/27 10:26:18;;;;;;;15.93;9.60;;;;;;;10.30;74.67;94397.16;5030719;28;20203;-76
2021/12/27 10:28:45;;;;;;;12.73;8.75;;;;;;;10.35;74.20;94395.25;5030811;28;20238;-77
2021/12/27 10:31:14;;;;;;;13.88;8.48;;;;;;;10.33;74.11;94379.25;5030690;28;20357;-77
2021/12/27 10:33:40;;;;;;;12.25;8.57;;;;;;;10.39;73.58;94381.53;5030322;28;20740;-74
2021/12/27 10:36:07;;;;;;;11.50;7.72;;;;;;;10.12;74.52;94366.56;5026911;28;20304;-74
2021/12/27 10:38:37;;;;;;;13.10;8.05;;;;;;;10.20;74.63;94384.03;5049340;28;20643;-75
2021/12/27 10:41:08;;;;;;;13.18;8.70;;;;;;;10.27;74.75;94375.25;5051257;28;20642;-74
2021/12/27 10:43:39;;;;;;;11.35;8.18;;;;;;;10.42;74.99;94363.59;5053762;28;20311;-74
2021/12/27 10:46:08;;;;;;;10.82;8.48;;;;;;;10.59;73.75;94371.31;5052875;28;20210;-77
2021/12/27 10:48:38;;;;;;;9.38;6.25;;;;;;;10.74;72.36;94385.88;5053463;28;20256;-74
2021/12/27 10:51:05;;;;;;;9.38;7.28;;;;;;;10.84;71.19;94371.03;5051399;28;20252;-76
2021/12/27 10:53:44;;;;;;;3.42;2.20;;;;;;;11.31;67.25;94361.19;5053392;28;20198;-77
2021/12/27 10:56:11;;;;;;;6.05;4.50;;;;;;;11.65;67.48;94354.47;5052542;28;20684;-78
2021/12/27 10:58:45;;;;;;;12.48;6.00;;;;;;;11.76;68.40;94359.88;5052805;28;20203;-77
2021/12/27 11:01:17;;;;;;;5.38;4.35;;;;;;;11.73;67.56;94352.38;5051375;28;20637;-75
2021/12/27 11:03:48;;;;;;;4.88;3.40;;;;;;;11.81;67.18;94355.41;5053130;28;20746;-77
2021/12/27 11:06:20;;;;;;;7.65;4.18;;;;;;;11.89;68.13;94363.47;5051414;28;20210;-75
2021/12/27 11:08:47;;;;;;;4.28;3.50;;;;;;;12.01;66.52;94354.41;5053173;28;20652;-75
2021/12/27 11:11:15;;;;;;;4.10;3.13;;;;;;;12.10;66.04;94347.13;5053039;28;20287;-77
2021/12/27 11:13:43;;;;;;;4.03;3.03;;;;;;;12.13;65.79;94349.50;5052602;28;20985;-75
2021/12/27 11:16:10;;;;;;;6.53;3.78;;;;;;;12.15;65.26;94354.53;5053418;28;20295;-74
2021/12/27 11:18:37;;;;;;;14.10;5.45;;;;;;;12.06;65.36;94338.00;5054208;28;21432;-75
2021/12/27 11:21:12;;;;;;;7.03;4.28;;;;;;;12.08;64.89;94328.56;5053774;28;20685;-77
2021/12/27 11:23:41;;;;;;;6.15;4.28;;;;;;;11.99;66.55;94336.66;5052834;28;20650;-76
2021/12/27 11:26:11;;;;;;;8.13;5.53;;;;;;;11.94;66.94;94325.88;5054613;28;20203;-77
2021/12/27 11:28:39;;;;;;;6.65;4.75;;;;;;;12.03;66.78;94334.78;5052860;28;20211;-79
2021/12/27 11:31:07;;;;;;;10.05;5.70;;;;;;;11.95;65.97;94332.63;5054481;28;20233;-75
2021/12/27 11:33:56;;;;;;;6.60;4.47;;;;;;;11.92;66.34;94325.13;5053988;28;20217;-75
2021/12/27 11:36:25;;;;;;;7.80;5.10;;;;;;;11.96;66.88;94328.34;5053733;28;21251;-76